Time;durP1;ratioP1;P1;durP2;ratioP2;P2;SDS_P1;SDS_P2;PMS_P1;PMS_P2;Temp;Humidity;BMP_temperature;BMP_pressure;BME280_temperature;BME280_humidity;BME280_pressure;Samples;Min_cycle;Max_cycle;Signal;HPM_P1;HPM_P2
2021/09/28 00:00:18;;;;;;;12.63;8.63;;;;;;;-143.37;100.00;65745.06;5015925;28;20786;-78
2021/09/28 00:02:44;;;;;;;13.20;8.43;;;;;;;-143.37;100.00;65745.06;5033420;28;20643;-78
2021/09/28 00:05:11;;;;;;;14.43;8.40;;;;;;;-143.37;100.00;65745.06;5015167;28;20715;-77
2021/09/28 00:07:37;;;;;;;14.83;8.73;;;;;;;-143.37;100.00;65745.06;5032401;28;20325;-78
2021/09/28 00:10:04;;;;;;;14.90;9.33;;;;;;;-143.37;100.00;65745.06;5032800;28;20222;-76
2021/09/28 00:12:31;;;;;;;11.50;7.70;;;;;;;-143.37;100.00;65745.06;5032858;28;20207;-77
2021/09/28 00:14:58;;;;;;;14.50;8.15;;;;;;;-143.37;100.00;65745.06;5031455;28;20293;-76
2021/09/28 00:17:24;;;;;;;14.27;8.90;;;;;;;-143.37;100.00;65745.06;5031770;28;20317;-78
2021/09/28 00:19:51;;;;;;;12.03;8.17;;;;;;;-143.37;100.00;65745.06;5033111;28;20294;-78
2021/09/28 00:22:17;;;;;;;11.23;7.40;;;;;;;-143.37;100.00;65745.06;5032655;28;20246;-77
2021/09/28 00:24:44;;;;;;;12.07;8.03;;;;;;;-143.37;100.00;65745.06;5031798;28;20253;-77
2021/09/28 00:27:10;;;;;;;13.03;8.03;;;;;;;-143.37;100.00;65745.06;5032749;28;20309;-78
2021/09/28 00:29:36;;;;;;;11.57;8.27;;;;;;;-143.37;100.00;65745.06;5032628;28;20266;-77
2021/09/28 00:32:05;;;;;;;11.90;8.20;;;;;;;-143.37;100.00;65745.06;5032569;28;20214;-76
2021/09/28 00:34:32;;;;;;;11.37;7.80;;;;;;;-143.37;100.00;65745.06;5032304;28;20207;-77
2021/09/28 00:36:58;;;;;;;11.67;8.00;;;;;;;-143.37;100.00;65745.06;5032111;28;20230;-76
2021/09/28 00:39:25;;;;;;;10.00;7.37;;;;;;;-143.37;100.00;65745.06;5032203;28;20305;-76
2021/09/28 00:41:51;;;;;;;12.23;6.90;;;;;;;-143.37;100.00;65745.06;5031614;28;20210;-76
2021/09/28 00:44:39;;;;;;;12.70;8.67;;;;;;;-143.37;100.00;65745.06;5032232;28;20849;-77
2021/09/28 00:47:07;;;;;;;10.13;7.73;;;;;;;-143.37;100.00;65745.06;5032803;28;20344;-78
2021/09/28 00:49:34;;;;;;;14.90;8.53;;;;;;;-143.37;100.00;65745.06;5032767;28;20222;-77
2021/09/28 00:52:01;;;;;;;14.40;8.50;;;;;;;-143.37;100.00;65745.06;5032178;28;20214;-77
2021/09/28 00:54:28;;;;;;;12.47;7.80;;;;;;;-143.37;100.00;65745.06;5032212;28;20292;-77
2021/09/28 00:56:55;;;;;;;11.27;7.37;;;;;;;-143.37;100.00;65745.06;5030711;28;20313;-77
2021/09/28 00:59:21;;;;;;;10.07;7.77;;;;;;;-143.37;100.00;65745.06;5033139;28;20743;-77
2021/09/28 01:34:41;;;;;;;14.37;8.60;;;;;;;-143.37;100.00;65745.06;5108764;27;20499;-76
2021/09/28 01:37:08;;;;;;;17.63;9.13;;;;;;;-143.37;100.00;65745.06;5109474;28;20251;-77
2021/09/28 01:39:34;;;;;;;14.10;9.27;;;;;;;-143.37;100.00;65745.06;5106824;28;20307;-76
2021/09/28 01:42:01;;;;;;;11.70;8.10;;;;;;;-143.37;100.00;65745.06;5089443;28;20721;-76
2021/09/28 01:44:28;;;;;;;14.27;9.07;;;;;;;-143.37;100.00;65745.06;5089181;28;20207;-77
2021/09/28 01:46:54;;;;;;;18.50;9.40;;;;;;;-143.37;100.00;65745.06;5088876;28;20311;-77
2021/09/28 01:49:21;;;;;;;14.20;9.57;;;;;;;-143.37;100.00;65745.06;5089002;28;20311;-76
2021/09/28 01:51:48;;;;;;;17.20;9.20;;;;;;;-143.37;100.00;65745.06;5089194;28;20204;-78
2021/09/28 01:54:14;;;;;;;15.47;8.13;;;;;;;-143.37;100.00;65745.06;5089210;28;20220;-78
2021/09/28 01:56:41;;;;;;;14.97;10.00;;;;;;;-143.37;100.00;65745.06;5094114;28;20748;-77
2021/09/28 01:59:08;;;;;;;14.00;8.37;;;;;;;-143.37;100.00;65745.06;5109301;28;20229;-77
2021/09/28 02:01:35;;;;;;;16.43;8.57;;;;;;;-143.37;100.00;65745.06;5109147;28;20214;-77
2021/09/28 02:04:02;;;;;;;15.33;9.27;;;;;;;-143.37;100.00;65745.06;5108734;28;20196;-77
2021/09/28 02:06:36;;;;;;;12.63;8.20;;;;;;;-143.37;100.00;65745.06;5108649;28;20224;-76
2021/09/28 02:09:04;;;;;;;13.43;8.47;;;;;;;-143.37;100.00;65745.06;5109410;28;20200;-78
2021/09/28 02:11:31;;;;;;;18.37;7.87;;;;;;;-143.37;100.00;65745.06;5093181;28;20228;-78
2021/09/28 02:13:59;;;;;;;16.63;8.67;;;;;;;-143.37;100.00;65745.06;5088363;28;20797;-77
2021/09/28 02:16:26;;;;;;;15.73;9.07;;;;;;;-143.37;100.00;65745.06;5088150;28;20225;-78
2021/09/28 02:18:52;;;;;;;15.00;8.77;;;;;;;-143.37;100.00;65745.06;5088464;28;20620;-78
2021/09/28 02:21:19;;;;;;;12.03;8.70;;;;;;;-143.37;100.00;65745.06;5088284;28;20228;-77
2021/09/28 02:23:45;;;;;;;13.27;8.77;;;;;;;-143.37;100.00;65745.06;5088035;28;20240;-77
2021/09/28 02:26:12;;;;;;;17.03;9.00;;;;;;;-143.37;100.00;65745.06;5087956;28;20228;-76
2021/09/28 02:28:38;;;;;;;12.90;8.07;;;;;;;-143.37;100.00;65745.06;5088288;28;20204;-77
2021/09/28 02:31:05;;;;;;;11.90;8.63;;;;;;;-143.37;100.00;65745.06;5088166;28;20616;-78
2021/09/28 02:33:32;;;;;;;14.13;9.10;;;;;;;-143.37;100.00;65745.06;5095459;28;20661;-77
2021/09/28 02:35:58;;;;;;;14.37;9.13;;;;;;;-143.37;100.00;65745.06;5107698;28;20310;-77
2021/09/28 02:38:25;;;;;;;12.70;8.17;;;;;;;-143.37;100.00;65745.06;5108465;28;20295;-77
2021/09/28 02:40:51;;;;;;;13.70;9.10;;;;;;;-143.37;100.00;65745.06;5094967;28;20205;-77
2021/09/28 02:43:18;;;;;;;14.87;8.50;;;;;;;-143.37;100.00;65745.06;5087865;28;20288;-77
2021/09/28 02:45:47;;;;;;;15.83;9.30;;;;;;;-143.37;100.00;65745.06;5075925;28;20295;-77
2021/09/28 02:48:15;;;;;;;15.13;9.57;;;;;;;-143.37;100.00;65745.06;5074201;28;20213;-76
2021/09/28 02:50:42;;;;;;;18.23;8.63;;;;;;;-143.37;100.00;65745.06;5074078;28;20334;-78
2021/09/28 02:53:09;;;;;;;14.67;8.57;;;;;;;-143.37;100.00;65745.06;5073754;28;20801;-78
2021/09/28 02:55:36;;;;;;;13.20;9.17;;;;;;;-143.37;100.00;65745.06;5073928;28;20325;-77
2021/09/28 02:58:03;;;;;;;15.60;9.67;;;;;;;-143.37;100.00;65745.06;5091367;28;20643;-78
2021/09/28 03:00:29;;;;;;;16.60;9.00;;;;;;;-143.37;100.00;65745.06;5094333;28;20208;-76
2021/09/28 03:02:56;;;;;;;15.70;9.47;;;;;;;-143.37;100.00;65745.06;5094054;28;20214;-78
2021/09/28 03:05:23;;;;;;;12.33;9.07;;;;;;;-143.37;100.00;65745.06;5093666;28;20212;-76
2021/09/28 03:07:49;;;;;;;15.50;8.97;;;;;;;-143.37;100.00;65745.06;5094275;28;20228;-76
2021/09/28 03:10:16;;;;;;;14.20;8.40;;;;;;;-143.37;100.00;65745.06;5088548;28;20248;-78
2021/09/28 03:12:42;;;;;;;16.07;9.20;;;;;;;-143.37;100.00;65745.06;5073886;28;20299;-76
2021/09/28 03:15:09;;;;;;;13.67;8.37;;;;;;;-143.37;100.00;65745.06;5073135;28;20620;-78
2021/09/28 03:17:36;;;;;;;13.60;9.50;;;;;;;-143.37;100.00;65745.06;5074077;28;20225;-77
2021/09/28 03:20:04;;;;;;;14.17;9.97;;;;;;;-143.37;100.00;65745.06;5073425;28;20335;-77
2021/09/28 03:22:31;;;;;;;17.63;10.17;;;;;;;-143.37;100.00;65745.06;5074022;28;20639;-76
2021/09/28 03:24:57;;;;;;;19.23;10.00;;;;;;;-143.37;100.00;65745.06;5073233;28;20201;-77
2021/09/28 03:27:24;;;;;;;15.23;9.50;;;;;;;-143.37;100.00;65745.06;5073926;28;20327;-77
2021/09/28 03:29:50;;;;;;;12.27;8.17;;;;;;;-143.37;100.00;65745.06;5073777;28;20288;-77
2021/09/28 03:32:17;;;;;;;13.97;9.77;;;;;;;-143.37;100.00;65745.06;5073536;28;20716;-79
2021/09/28 03:34:43;;;;;;;15.17;10.17;;;;;;;-143.37;100.00;65745.06;5091316;28;20319;-78
2021/09/28 03:37:10;;;;;;;15.47;9.13;;;;;;;-143.37;100.00;65745.06;5092585;28;20319;-77
2021/09/28 03:39:36;;;;;;;15.40;9.40;;;;;;;-143.37;100.00;65745.06;5090437;28;20610;-77
2021/09/28 03:42:03;;;;;;;14.33;9.43;;;;;;;-143.37;100.00;65745.06;5074280;28;20720;-77
2021/09/28 03:44:30;;;;;;;16.87;10.43;;;;;;;-143.37;100.00;65745.06;5071867;28;20201;-77
2021/09/28 03:46:56;;;;;;;18.97;9.97;;;;;;;-143.37;100.00;65745.06;5072594;28;20320;-77
2021/09/28 03:49:23;;;;;;;17.93;9.70;;;;;;;-143.37;100.00;65745.06;5073020;28;20663;-77
2021/09/28 03:51:49;;;;;;;17.53;10.00;;;;;;;-143.37;100.00;65745.06;5073224;28;20211;-77
2021/09/28 03:54:16;;;;;;;16.30;9.60;;;;;;;-143.37;100.00;65745.06;5072566;28;20229;-77
2021/09/28 03:56:42;;;;;;;17.83;9.60;;;;;;;-143.37;100.00;65745.06;5078838;28;20693;-77
2021/09/28 03:59:09;;;;;;;19.33;9.97;;;;;;;-143.37;100.00;65745.06;5093891;28;20695;-78
2021/09/28 04:01:35;;;;;;;17.20;10.00;;;;;;;-143.37;100.00;65745.06;5093271;28;20208;-77
2021/09/28 04:04:02;;;;;;;14.10;9.27;;;;;;;-143.37;100.00;65745.06;5092956;28;20239;-77
2021/09/28 04:06:29;;;;;;;16.33;9.57;;;;;;;-143.37;100.00;65745.06;5092843;28;20248;-78
2021/09/28 04:08:55;;;;;;;21.73;9.30;;;;;;;-143.37;100.00;65745.06;5093051;28;20236;-77
2021/09/28 04:11:22;;;;;;;17.03;9.60;;;;;;;-143.37;100.00;65745.06;5078128;28;20696;-77
2021/09/28 04:13:49;;;;;;;16.80;8.90;;;;;;;-143.37;100.00;65745.06;5072055;28;20217;-77
2021/09/28 04:16:19;;;;;;;16.87;10.37;;;;;;;-143.37;100.00;65745.06;5072449;28;20228;-78
2021/09/28 04:18:46;;;;;;;17.40;9.77;;;;;;;-143.37;100.00;65745.06;5072496;28;20215;-77
2021/09/28 04:21:13;;;;;;;18.80;10.80;;;;;;;-143.37;100.00;65745.06;5072551;28;20205;-78
2021/09/28 04:23:40;;;;;;;15.90;8.53;;;;;;;-143.37;100.00;65745.06;5072206;28;20232;-77
2021/09/28 04:26:07;;;;;;;16.30;9.00;;;;;;;-143.37;100.00;65745.06;5072177;28;20260;-78
2021/09/28 04:28:35;;;;;;;12.77;8.43;;;;;;;-143.37;100.00;65745.06;5072462;28;20301;-79
2021/09/28 04:31:02;;;;;;;10.13;7.40;;;;;;;-143.37;100.00;65745.06;5072673;28;20315;-78
2021/09/28 04:33:28;;;;;;;13.63;8.13;;;;;;;-143.37;100.00;65745.06;5078362;28;20228;-78
2021/09/28 04:35:55;;;;;;;14.13;8.07;;;;;;;-143.37;100.00;65745.06;5092319;28;20299;-78
2021/09/28 04:38:21;;;;;;;12.93;8.87;;;;;;;-143.37;100.00;65745.06;5092458;28;20704;-78
2021/09/28 04:40:48;;;;;;;14.33;9.30;;;;;;;-143.37;100.00;65745.06;5079287;28;20705;-77
2021/09/28 04:43:14;;;;;;;14.23;8.57;;;;;;;-143.37;100.00;65745.06;5071772;28;20295;-78
2021/09/28 04:45:41;;;;;;;14.40;8.87;;;;;;;-143.37;100.00;65745.06;5071780;28;20296;-77
2021/09/28 04:48:08;;;;;;;12.33;7.77;;;;;;;-143.37;100.00;65745.06;5072445;28;20283;-78
2021/09/28 04:50:34;;;;;;;13.87;9.20;;;;;;;-143.37;100.00;65745.06;5070567;28;20666;-77
2021/09/28 04:53:01;;;;;;;13.97;9.10;;;;;;;-143.37;100.00;65745.06;5071865;28;20287;-76
2021/09/28 04:55:27;;;;;;;17.57;9.47;;;;;;;-143.37;100.00;65745.06;5071207;28;20221;-77
2021/09/28 04:57:54;;;;;;;15.27;8.80;;;;;;;-143.37;100.00;65745.06;5087861;28;20264;-78
2021/09/28 05:00:21;;;;;;;16.07;8.93;;;;;;;-143.37;100.00;65745.06;5092194;28;20287;-77
2021/09/28 05:02:47;;;;;;;13.27;8.17;;;;;;;-143.37;100.00;65745.06;5092143;28;20265;-78
2021/09/28 05:05:14;;;;;;;13.90;8.67;;;;;;;-143.37;100.00;65745.06;5091288;28;20205;-78
2021/09/28 05:07:40;;;;;;;11.63;8.50;;;;;;;-143.37;100.00;65745.06;5091702;28;20702;-76
2021/09/28 05:10:07;;;;;;;12.37;7.53;;;;;;;-143.37;100.00;65745.06;5064478;28;20279;-74
2021/09/28 05:12:35;;;;;;;11.77;8.33;;;;;;;-143.37;100.00;65745.06;5061751;28;20208;-75
2021/09/28 05:15:02;;;;;;;11.63;7.93;;;;;;;-143.37;100.00;65745.06;5063632;28;20319;-74
2021/09/28 05:17:29;;;;;;;19.47;7.90;;;;;;;-143.37;100.00;65745.06;5062212;28;20230;-75
2021/09/28 05:19:55;;;;;;;13.60;8.50;;;;;;;-143.37;100.00;65745.06;5059228;28;20214;-75
2021/09/28 05:22:24;;;;;;;13.93;8.30;;;;;;;-143.37;100.00;65745.06;5060925;28;20212;-73
2021/09/28 05:24:50;;;;;;;13.23;8.07;;;;;;;-143.37;100.00;65745.06;5060098;28;20775;-76
2021/09/28 05:27:17;;;;;;;12.83;8.23;;;;;;;-143.37;100.00;65745.06;5059751;28;20267;-75
2021/09/28 05:29:43;;;;;;;11.50;7.37;;;;;;;-143.37;100.00;65745.06;5060166;28;20277;-74
2021/09/28 05:32:09;;;;;;;13.73;7.13;;;;;;;-143.37;100.00;65745.06;5063371;28;20208;-75
2021/09/28 05:34:36;;;;;;;17.13;8.73;;;;;;;-143.37;100.00;65745.06;5059545;28;20309;-75
2021/09/28 05:37:03;;;;;;;12.27;8.27;;;;;;;-143.37;100.00;65745.06;5060915;28;20776;-74
2021/09/28 05:39:30;;;;;;;16.30;7.40;;;;;;;-143.37;100.00;65745.06;5061260;28;20198;-74
2021/09/28 05:41:56;;;;;;;11.53;7.50;;;;;;;-143.37;100.00;65745.06;5071399;28;20340;-73
2021/09/28 05:44:23;;;;;;;12.20;7.30;;;;;;;-143.37;100.00;65745.06;5071063;28;20284;-75
2021/09/28 05:46:50;;;;;;;10.53;7.67;;;;;;;-143.37;100.00;65745.06;5069682;28;20764;-75
2021/09/28 05:49:16;;;;;;;11.17;6.63;;;;;;;-143.37;100.00;65745.06;5071844;28;20332;-74
2021/09/28 05:51:51;;;;;;;10.57;7.03;;;;;;;-143.37;100.00;65745.06;5071887;28;20205;-73
2021/09/28 05:54:20;;;;;;;11.77;6.50;;;;;;;-143.37;100.00;65745.06;5072093;28;20691;-76
2021/09/28 05:56:48;;;;;;;16.57;6.90;;;;;;;-143.37;100.00;65745.06;5070705;28;20316;-74
2021/09/28 05:59:15;;;;;;;12.90;6.20;;;;;;;-143.37;100.00;65745.06;5072238;28;20213;-74
2021/09/28 06:01:42;;;;;;;60.07;16.00;;;;;;;-143.37;100.00;65745.06;5071520;28;20288;-75
2021/09/28 06:04:09;;;;;;;20.07;7.77;;;;;;;-143.37;100.00;65745.06;5071198;28;20201;-75
2021/09/28 06:06:36;;;;;;;8.63;5.43;;;;;;;-143.37;100.00;65745.06;5071389;28;20307;-74
2021/09/28 06:09:04;;;;;;;11.30;5.90;;;;;;;-143.37;100.00;65745.06;5072023;28;20217;-74
2021/09/28 06:11:30;;;;;;;7.10;5.13;;;;;;;-143.37;100.00;65745.06;5072665;28;20749;-73
2021/09/28 06:13:57;;;;;;;20.93;8.20;;;;;;;-143.37;100.00;65745.06;5072525;28;20296;-73
2021/09/28 06:16:23;;;;;;;8.87;5.40;;;;;;;-143.37;100.00;65745.06;5073098;28;20644;-73
2021/09/28 06:18:50;;;;;;;16.30;7.00;;;;;;;-143.37;100.00;65745.06;5071786;28;20201;-74
2021/09/28 06:21:17;;;;;;;15.75;5.50;;;;;;;-143.37;100.00;65745.06;5074787;28;20256;-75
2021/09/28 06:23:43;;;;;;;6.20;4.50;;;;;;;-143.37;100.00;65745.06;5073852;28;20292;-76
2021/09/28 06:26:10;;;;;;;6.13;4.43;;;;;;;-143.37;100.00;65745.06;5073395;28;20304;-73
2021/09/28 06:28:37;;;;;;;31.20;8.57;;;;;;;-143.37;100.00;65745.06;5074841;28;20239;-75
2021/09/28 06:31:04;;;;;;;7.57;4.40;;;;;;;-143.37;100.00;65745.06;5074599;28;20630;-74
2021/09/28 06:33:31;;;;;;;10.40;3.80;;;;;;;-143.37;100.00;65745.06;5081823;28;20216;-75
2021/09/28 06:35:57;;;;;;;7.55;4.22;;;;;;;-143.37;100.00;65745.06;5094719;28;20339;-74
2021/09/28 06:38:24;;;;;;;3.10;2.28;;;;;;;-143.37;100.00;65745.06;5095267;28;20284;-76
2021/09/28 06:40:50;;;;;;;2.50;1.80;;;;;;;-143.37;100.00;65745.06;5081730;28;20262;-74
2021/09/28 06:43:17;;;;;;;2.53;1.52;;;;;;;-143.37;100.00;65745.06;5073863;28;20296;-74
2021/09/28 06:45:44;;;;;;;3.25;1.42;;;;;;;-143.37;100.00;65745.06;5073862;28;20207;-75
2021/09/28 06:48:10;;;;;;;2.03;1.50;;;;;;;-143.37;100.00;65745.06;5072582;28;20270;-74
2021/09/28 06:50:37;;;;;;;1.05;0.85;;;;;;;-143.37;100.00;65745.06;5072514;28;20244;-74
2021/09/28 06:53:04;;;;;;;1.37;1.10;;;;;;;-143.37;100.00;65745.06;5072304;28;20671;-74
2021/09/28 06:55:31;;;;;;;1.02;0.80;;;;;;;-143.37;100.00;65745.06;5073109;28;20605;-74
2021/09/28 06:57:57;;;;;;;1.23;0.90;;;;;;;-143.37;100.00;65745.06;5090206;28;20311;-74
2021/09/28 07:00:24;;;;;;;1.83;0.88;;;;;;;-143.37;100.00;65745.06;5094226;28;20295;-75
2021/09/28 07:02:50;;;;;;;0.77;0.63;;;;;;;-143.37;100.00;65745.06;5092978;28;20208;-73
2021/09/28 07:05:20;;;;;;;0.70;0.68;;;;;;;-143.37;100.00;65745.06;5093922;28;20350;-74
2021/09/28 07:07:46;;;;;;;1.10;0.80;;;;;;;-143.37;100.00;65745.06;5094034;28;20312;-73
2021/09/28 07:10:13;;;;;;;0.98;0.80;;;;;;;-143.37;100.00;65745.06;5088056;28;20277;-74
2021/09/28 07:12:39;;;;;;;0.85;0.63;;;;;;;-143.37;100.00;65745.06;5073993;28;20213;-74
2021/09/28 07:15:06;;;;;;;1.02;0.68;;;;;;;-143.37;100.00;65745.06;5073012;28;20261;-75
2021/09/28 07:17:33;;;;;;;0.88;0.60;;;;;;;-143.37;100.00;65745.06;5074017;28;20274;-75
2021/09/28 07:20:02;;;;;;;0.93;0.50;;;;;;;-143.37;100.00;65745.06;5073913;28;20223;-76
2021/09/28 07:22:28;;;;;;;1.15;0.63;;;;;;;-143.37;100.00;65745.06;5089136;28;20671;-75
2021/09/28 07:24:55;;;;;;;1.83;0.60;;;;;;;-143.37;100.00;65745.06;5072960;28;20255;-74
2021/09/28 07:27:27;;;;;;;0.60;0.60;;;;;;;-143.37;100.00;65745.06;5073872;28;20265;-73
2021/09/28 07:29:55;;;;;;;1.42;0.60;;;;;;;-143.37;100.00;65745.06;5073453;28;20233;-74
2021/09/28 07:32:23;;;;;;;0.68;0.68;;;;;;;-143.37;100.00;65745.06;5073338;28;20243;-74
2021/09/28 07:34:50;;;;;;;0.50;0.47;;;;;;;-143.37;100.00;65745.06;5091530;28;20320;-74
2021/09/28 07:37:16;;;;;;;3.03;0.70;;;;;;;-143.37;100.00;65745.06;5093504;28;20256;-75
2021/09/28 07:39:49;;;;;;;1.65;0.65;;;;;;;-143.37;100.00;65745.06;5088575;28;20274;-73
2021/09/28 07:42:15;;;;;;;0.82;0.77;;;;;;;-143.37;100.00;65745.06;5072964;28;20295;-74
2021/09/28 07:44:42;;;;;;;0.88;0.60;;;;;;;-143.37;100.00;65745.06;5072550;28;20229;-75
2021/09/28 07:47:08;;;;;;;1.30;0.50;;;;;;;-143.37;100.00;65745.06;5073073;28;20316;-75
2021/09/28 07:49:36;;;;;;;2.13;0.60;;;;;;;-143.37;100.00;65745.06;5073337;28;20209;-73
2021/09/28 07:52:02;;;;;;;0.80;0.50;;;;;;;-143.37;100.00;65745.06;5072917;28;20296;-74
2021/09/28 07:54:29;;;;;;;2.00;0.57;;;;;;;-143.37;100.00;65745.06;5070920;28;20308;-75
2021/09/28 07:56:57;;;;;;;1.30;0.70;;;;;;;-143.37;100.00;65745.06;5080121;28;20236;-74
2021/09/28 07:59:24;;;;;;;2.20;0.83;;;;;;;-143.37;100.00;65745.06;5093337;28;20296;-75
2021/09/28 08:01:50;;;;;;;1.03;0.90;;;;;;;-143.37;100.00;65745.06;5093006;28;20208;-74
2021/09/28 08:04:20;;;;;;;1.70;0.80;;;;;;;-143.37;100.00;65745.06;5092699;28;20257;-76
2021/09/28 08:06:47;;;;;;;2.77;0.90;;;;;;;-143.37;100.00;65745.06;5092225;28;20663;-75
2021/09/28 08:09:15;;;;;;;1.13;0.93;;;;;;;-143.37;100.00;65745.06;5092678;28;20209;-73
2021/09/28 08:11:42;;;;;;;1.77;1.20;;;;;;;-143.37;100.00;65745.06;5075090;28;20253;-73
2021/09/28 08:14:09;;;;;;;2.80;1.00;;;;;;;-143.37;100.00;65745.06;5071643;28;20209;-73
2021/09/28 08:16:36;;;;;;;3.10;1.00;;;;;;;-143.37;100.00;65745.06;5071554;28;20617;-74
2021/09/28 08:19:03;;;;;;;2.50;0.93;;;;;;;-143.37;100.00;65745.06;5072381;28;20245;-74
2021/09/28 08:21:31;;;;;;;1.60;0.97;;;;;;;-143.37;100.00;65745.06;5072502;28;20252;-74
2021/09/28 08:23:57;;;;;;;2.08;1.50;;;;;;;-143.37;100.00;65745.06;5072144;28;20231;-73
2021/09/28 08:29:10;;;;;;;4.60;1.25;;;;;;;-143.37;100.00;65745.06;5072466;28;20206;-74
2021/09/28 08:31:42;;;;;;;2.35;0.80;;;;;;;-143.37;100.00;65745.06;5072388;28;20278;-75
2021/09/28 08:34:10;;;;;;;1.10;1.00;;;;;;;-143.37;100.00;65745.06;5084762;28;20308;-74
2021/09/28 08:36:37;;;;;;;0.90;0.73;;;;;;;-143.37;100.00;65745.06;5091820;28;20259;-74
2021/09/28 08:39:08;;;;;;;1.33;1.20;;;;;;;-143.37;100.00;65745.06;5092356;28;20205;-74
2021/09/28 08:41:37;;;;;;;1.10;0.93;;;;;;;-143.37;100.00;65745.06;5071662;28;20217;-75
2021/09/28 08:44:04;;;;;;;2.00;1.20;;;;;;;-143.37;100.00;65745.06;5071274;28;20252;-75
2021/09/28 08:46:31;;;;;;;5.28;1.10;;;;;;;-143.37;100.00;65745.06;5070456;28;20696;-75
2021/09/28 08:48:57;;;;;;;3.28;1.45;;;;;;;-143.37;100.00;65745.06;5072443;28;20220;-75
2021/09/28 08:51:24;;;;;;;2.83;1.17;;;;;;;-143.37;100.00;65745.06;5072242;28;20209;-75
2021/09/28 08:53:50;;;;;;;2.72;1.60;;;;;;;-143.37;100.00;65745.06;5071565;28;20671;-75
2021/09/28 08:56:17;;;;;;;4.13;1.25;;;;;;;-143.37;100.00;65745.06;5074010;28;20265;-73
2021/09/28 08:58:57;;;;;;;2.25;1.58;;;;;;;-143.37;100.00;65745.06;5092091;28;20581;-74
2021/09/28 09:01:27;;;;;;;2.92;1.25;;;;;;;-143.37;100.00;65745.06;5091705;28;20243;-74
2021/09/28 09:03:54;;;;;;;2.50;1.92;;;;;;;-143.37;100.00;65745.06;5075363;28;20262;-75
2021/09/28 09:06:34;;;;;;;1.95;1.38;;;;;;;-143.37;100.00;65745.06;5071669;28;20248;-75
2021/09/28 09:09:02;;;;;;;2.55;1.85;;;;;;;-143.37;100.00;65745.06;5072976;28;20215;-74
2021/09/28 09:11:38;;;;;;;2.70;1.77;;;;;;;-143.37;100.00;65745.06;5074201;28;20857;-73
2021/09/28 09:14:13;;;;;;;4.10;1.60;;;;;;;-143.37;100.00;65745.06;5071506;28;20313;-75
2021/09/28 09:16:41;;;;;;;2.63;1.27;;;;;;;-143.37;100.00;65745.06;5071262;28;20266;-74
2021/09/28 09:19:23;;;;;;;1.67;1.42;;;;;;;-143.37;100.00;65745.06;5071447;28;20297;-73
2021/09/28 09:21:50;;;;;;;2.55;1.25;;;;;;;-143.37;100.00;65745.06;5071158;28;20648;-74
2021/09/28 09:24:46;;;;;;;1.08;1.02;;;;;;;-143.37;100.00;65745.06;5070788;28;20296;-75
2021/09/28 09:27:26;;;;;;;1.77;1.13;;;;;;;-143.37;100.00;65745.06;5071166;28;20232;-75
2021/09/28 09:30:17;;;;;;;3.00;1.35;;;;;;;-143.37;100.00;65745.06;5071099;28;20295;-74
2021/09/28 09:32:56;;;;;;;2.35;1.30;;;;;;;-143.37;100.00;65745.06;5072036;28;20270;-75
2021/09/28 09:35:23;;;;;;;2.47;1.50;;;;;;;-143.37;100.00;65745.06;5089612;28;20228;-74
2021/09/28 09:37:50;;;;;;;2.58;1.45;;;;;;;-143.37;100.00;65745.06;5089761;28;20656;-75
2021/09/28 09:40:31;;;;;;;1.88;1.40;;;;;;;-143.37;100.00;65745.06;5081931;28;20240;-73
2021/09/28 09:42:58;;;;;;;1.13;1.00;;;;;;;-143.37;100.00;65745.06;5070618;28;20246;-76
2021/09/28 09:45:27;;;;;;;3.20;1.85;;;;;;;-143.37;100.00;65745.06;5070272;28;20212;-73
2021/09/28 09:47:54;;;;;;;1.30;1.10;;;;;;;-143.37;100.00;65745.06;5070821;28;20221;-73
2021/09/28 09:50:26;;;;;;;1.52;1.40;;;;;;;-143.37;100.00;65745.06;5069814;28;20585;-74
2021/09/28 09:52:59;;;;;;;1.92;1.30;;;;;;;-143.37;100.00;65745.06;5070940;28;20244;-74
2021/09/28 09:55:28;;;;;;;2.55;1.55;;;;;;;-143.37;100.00;65745.06;5071534;28;20922;-74
2021/09/28 09:57:55;;;;;;;2.15;1.42;;;;;;;-143.37;100.00;65745.06;5082006;28;20271;-75
2021/09/28 10:00:22;;;;;;;3.60;1.60;;;;;;;-143.37;100.00;65745.06;5074719;28;20292;-74
2021/09/28 10:02:49;;;;;;;1.20;1.10;;;;;;;-143.37;100.00;65745.06;5074835;28;20284;-75
2021/09/28 10:05:17;;;;;;;6.53;1.20;;;;;;;-143.37;100.00;65745.06;5073876;28;20577;-74
2021/09/28 10:07:48;;;;;;;2.97;1.67;;;;;;;-143.37;100.00;65745.06;5074421;28;20317;-76
2021/09/28 10:10:16;;;;;;;1.58;1.15;;;;;;;-143.37;100.00;65745.06;5074381;28;20205;-75
2021/09/28 10:12:43;;;;;;;2.40;1.40;;;;;;;-143.37;100.00;65745.06;5074503;28;20308;-74
2021/09/28 10:15:11;;;;;;;1.98;1.27;;;;;;;-143.37;100.00;65745.06;5073953;28;20387;-74
2021/09/28 10:17:40;;;;;;;2.28;1.50;;;;;;;-143.37;100.00;65745.06;5074232;28;20775;-73
2021/09/28 10:20:21;;;;;;;2.03;1.30;;;;;;;-143.37;100.00;65745.06;5074359;28;20209;-73
2021/09/28 10:22:53;;;;;;;1.50;1.33;;;;;;;-143.37;100.00;65745.06;5073881;28;20232;-73
2021/09/28 10:25:19;;;;;;;1.75;1.30;;;;;;;-143.37;100.00;65745.06;5073540;28;20243;-74
2021/09/28 10:27:47;;;;;;;2.10;1.25;;;;;;;-143.37;100.00;65745.06;5073917;28;20229;-73
2021/09/28 10:30:35;;;;;;;2.22;1.48;;;;;;;-143.37;100.00;65745.06;5073787;28;20245;-73
2021/09/28 10:33:04;;;;;;;3.10;1.38;;;;;;;-143.37;100.00;65745.06;5077136;28;20204;-75
2021/09/28 10:35:32;;;;;;;2.38;1.30;;;;;;;-143.37;100.00;65745.06;5093468;28;20239;-74
2021/09/28 10:38:05;;;;;;;2.15;1.50;;;;;;;-143.37;100.00;65745.06;5093945;28;20250;-74
2021/09/28 10:40:32;;;;;;;2.45;1.40;;;;;;;-143.37;100.00;65745.06;5083080;28;20284;-73
2021/09/28 10:43:04;;;;;;;4.78;1.60;;;;;;;-143.37;100.00;65745.06;5073834;28;20217;-73
2021/09/28 10:45:35;;;;;;;2.50;1.60;;;;;;;-143.37;100.00;65745.06;5073157;28;20676;-75
2021/09/28 10:48:08;;;;;;;2.83;1.48;;;;;;;-143.37;100.00;65745.06;5073622;28;20721;-75
2021/09/28 10:50:39;;;;;;;2.20;1.50;;;;;;;-143.37;100.00;65745.06;5073736;28;20296;-75
2021/09/28 10:53:08;;;;;;;2.10;1.38;;;;;;;-143.37;100.00;65745.06;5072220;28;20284;-73
2021/09/28 10:55:41;;;;;;;2.90;1.38;;;;;;;-143.37;100.00;65745.06;5073387;28;20304;-75
2021/09/28 10:58:14;;;;;;;2.05;1.60;;;;;;;-143.37;100.00;65745.06;5091107;28;20243;-73
2021/09/28 11:00:41;;;;;;;3.30;1.80;;;;;;;-143.37;100.00;65745.06;5093347;28;20200;-75
2021/09/28 11:03:08;;;;;;;2.65;1.20;;;;;;;-143.37;100.00;65745.06;5093169;28;20205;-74
2021/09/28 11:05:56;;;;;;;2.25;1.30;;;;;;;-143.37;100.00;65745.06;5092402;28;20230;-74
2021/09/28 11:08:23;;;;;;;2.90;1.80;;;;;;;-143.37;100.00;65745.06;5093188;28;20287;-74
2021/09/28 11:10:58;;;;;;;2.28;1.35;;;;;;;-143.37;100.00;65745.06;5082975;28;20683;-73
2021/09/28 11:13:29;;;;;;;3.63;1.55;;;;;;;-143.37;100.00;65745.06;5072555;28;20365;-74
2021/09/28 11:15:57;;;;;;;3.72;1.98;;;;;;;-143.37;100.00;65745.06;5071408;28;20308;-73
2021/09/28 11:18:24;;;;;;;5.53;2.20;;;;;;;-143.37;100.00;65745.06;5072868;28;20629;-76
2021/09/28 11:20:51;;;;;;;2.15;1.60;;;;;;;-143.37;100.00;65745.06;5072600;28;20243;-75
2021/09/28 11:23:18;;;;;;;13.00;2.17;;;;;;;-143.37;100.00;65745.06;5071903;28;20629;-75
2021/09/28 11:25:53;;;;;;;3.67;2.00;;;;;;;-143.37;100.00;65745.06;5072619;28;20301;-74
2021/09/28 11:28:23;;;;;;;2.75;1.35;;;;;;;-143.37;100.00;65745.06;5088586;28;20209;-74
2021/09/28 11:31:04;;;;;;;2.97;1.60;;;;;;;-143.37;100.00;65745.06;5072895;28;20205;-75
2021/09/28 11:33:42;;;;;;;1.27;1.13;;;;;;;-143.37;100.00;65745.06;5090795;28;20709;-74
2021/09/28 11:36:15;;;;;;;2.38;1.50;;;;;;;-143.37;100.00;65745.06;5092749;28;20315;-74
2021/09/28 11:38:51;;;;;;;3.67;1.50;;;;;;;-143.37;100.00;65745.06;5092806;28;20296;-75
2021/09/28 11:41:20;;;;;;;3.55;1.55;;;;;;;-143.37;100.00;65745.06;5075452;28;20590;-75
2021/09/28 11:43:55;;;;;;;2.63;1.52;;;;;;;-143.37;100.00;65745.06;5072272;28;20205;-73